Messwerte Zabol

Temperatur

Temperatur
°C
1593736200 5.00 5.00 30
1593739800 6.00 6.00
1593743400 7.00 7.00 30
1593747000 8.00 8.00 30
1593750600 9.00 9.00 32
1593754200 10.00 10.00 33
1593757800 11.00 11.00 35
1593761400 12.00 12.00 36
1593765000 13.00 13.00 38
1593768600 14.00 14.00 40
1593772200 15.00 15.00 41
1593775800 16.00 16.00 41
1593779400 17.00 17.00 42
1593783000 18.00 18.00 40
1593786600 19.00 19.00 38
1593790200 20.00 20.00 36
1593793800 21.00 21.00 35
1593797400 22.00 22.00 34
1593801000 23.00 23.00 33
1593804600 0.00 0.00 32
1593808200 1.00 1.00 31
1593811800 2.00 2.00 29
1593815400 3.00 3.00
1593819000 4.00 4.00

Wir danken unserem Partner:

Aktuellste Messwerte

Wettercharakter
Wetter: meist klar
Temperatur
28 °C
Feuchtigkeit
20 %
Wind
60 km/hWindrichtung: Nord
Böen
80 km/h
Luftdruck
1001 hPa
Messzeit: 4. Juli 2020, 4.30Datenquelle: METAR

Weitere Messstationen in der Nähe

Messstation Temperatur Entfernung
Zahedan 21 °C 185 km
Birjand 23 °C 295 km
Herat 24 °C 359 km
Kandahar 25 °C 418 km
Iranshahr 34 °C 434 km
Kerman 24 °C 440 km

Wind

Windrichtung Böen Mittelwind
° km/h km/h
1593736200 5.00 4.00 - 5.00 350° 80 60
1593739800 6.00 5.00 - 6.00
1593743400 7.00 6.00 - 7.00 340° 80 60
1593747000 8.00 7.00 - 8.00 340° 85 65
1593750600 9.00 8.00 - 9.00 340° 95 70
1593754200 10.00 9.00 - 10.00 340° 85 65
1593757800 11.00 10.00 - 11.00 340° 75 60
1593761400 12.00 11.00 - 12.00 340° 80 60
1593765000 13.00 12.00 - 13.00 340° 85 60
1593768600 14.00 13.00 - 14.00 340° 75 60
1593772200 15.00 14.00 - 15.00 340° 60
1593775800 16.00 15.00 - 16.00 320° 60
1593779400 17.00 16.00 - 17.00 340° 65 45
1593783000 18.00 17.00 - 18.00 340° 55
1593786600 19.00 18.00 - 19.00 340° 45
1593790200 20.00 19.00 - 20.00 340° 45
1593793800 21.00 20.00 - 21.00 340° 50
1593797400 22.00 21.00 - 22.00 340° 50
1593801000 23.00 22.00 - 23.00 340° 50
1593804600 0.00 23.00 - 0.00 330° 55
1593808200 1.00 0.00 - 1.00 330° 45
1593811800 2.00 1.00 - 2.00 330° 45
1593815400 3.00 2.00 - 3.00
1593819000 4.00 3.00 - 4.00

Ihre Wetterstation

Fehlt Ihre Wetterstation auf unserem Portal?

Schreiben Sie an network@meteonews.ch

Klima

Wann ist es am wärmsten? Wann regnet es am wenigsten? Unsere Klimadaten geben Auskunft.